sensor_id;sensor_type;location;lat;lon;timestamp;P1;durP1;ratioP1;P2;durP2;ratioP2
53339;SDS011;46212;50.258;19.062;2023-07-22T00:02:20;17.27;;;9.60;;
53339;SDS011;46212;50.258;19.062;2023-07-22T00:04:47;14.73;;;10.15;;
53339;SDS011;46212;50.258;19.062;2023-07-22T00:07:13;13.20;;;9.77;;
53339;SDS011;46212;50.258;19.062;2023-07-22T00:09:38;15.53;;;11.83;;
53339;SDS011;46212;50.258;19.062;2023-07-22T00:12:06;13.80;;;10.75;;
53339;SDS011;46212;50.258;19.062;2023-07-22T00:14:32;15.67;;;11.40;;
53339;SDS011;46212;50.258;19.062;2023-07-22T00:16:57;15.37;;;11.23;;
53339;SDS011;46212;50.258;19.062;2023-07-22T00:19:23;14.33;;;11.30;;
53339;SDS011;46212;50.258;19.062;2023-07-22T00:21:48;16.90;;;11.43;;
53339;SDS011;46212;50.258;19.062;2023-07-22T00:24:14;14.23;;;10.67;;
53339;SDS011;46212;50.258;19.062;2023-07-22T00:26:39;14.63;;;11.87;;
53339;SDS011;46212;50.258;19.062;2023-07-22T00:29:05;14.97;;;11.67;;
53339;SDS011;46212;50.258;19.062;2023-07-22T00:31:31;23.27;;;15.83;;
53339;SDS011;46212;50.258;19.062;2023-07-22T00:33:56;35.40;;;27.70;;
53339;SDS011;46212;50.258;19.062;2023-07-22T00:36:21;33.43;;;23.67;;
53339;SDS011;46212;50.258;19.062;2023-07-22T00:38:47;22.07;;;14.67;;
53339;SDS011;46212;50.258;19.062;2023-07-22T00:41:12;18.13;;;12.60;;
53339;SDS011;46212;50.258;19.062;2023-07-22T00:43:38;24.17;;;17.70;;
53339;SDS011;46212;50.258;19.062;2023-07-22T00:46:03;17.60;;;12.20;;
53339;SDS011;46212;50.258;19.062;2023-07-22T00:48:29;25.95;;;18.63;;
53339;SDS011;46212;50.258;19.062;2023-07-22T00:50:56;25.52;;;18.75;;
53339;SDS011;46212;50.258;19.062;2023-07-22T00:53:21;31.60;;;23.30;;
53339;SDS011;46212;50.258;19.062;2023-07-22T00:55:47;30.90;;;22.30;;
53339;SDS011;46212;50.258;19.062;2023-07-22T00:58:12;24.77;;;17.07;;
53339;SDS011;46212;50.258;19.062;2023-07-22T01:00:38;20.73;;;16.00;;
53339;SDS011;46212;50.258;19.062;2023-07-22T01:03:03;23.50;;;17.43;;
53339;SDS011;46212;50.258;19.062;2023-07-22T01:05:29;21.98;;;15.98;;
53339;SDS011;46212;50.258;19.062;2023-07-22T01:07:56;17.00;;;13.20;;
53339;SDS011;46212;50.258;19.062;2023-07-22T01:10:21;16.50;;;11.85;;
53339;SDS011;46212;50.258;19.062;2023-07-22T01:12:47;16.40;;;10.10;;
53339;SDS011;46212;50.258;19.062;2023-07-22T01:15:12;16.07;;;10.30;;
53339;SDS011;46212;50.258;19.062;2023-07-22T01:17:38;15.38;;;9.27;;
53339;SDS011;46212;50.258;19.062;2023-07-22T01:20:05;14.07;;;9.77;;
53339;SDS011;46212;50.258;19.062;2023-07-22T01:22:32;12.13;;;9.82;;
53339;SDS011;46212;50.258;19.062;2023-07-22T01:24:58;13.98;;;8.93;;
53339;SDS011;46212;50.258;19.062;2023-07-22T01:27:24;12.05;;;8.45;;
53339;SDS011;46212;50.258;19.062;2023-07-22T01:29:50;14.52;;;8.25;;
53339;SDS011;46212;50.258;19.062;2023-07-22T01:32:16;14.70;;;8.02;;
53339;SDS011;46212;50.258;19.062;2023-07-22T01:34:42;14.30;;;8.80;;
53339;SDS011;46212;50.258;19.062;2023-07-22T01:37:08;12.83;;;9.13;;
53339;SDS011;46212;50.258;19.062;2023-07-22T01:39:34;9.90;;;8.02;;
53339;SDS011;46212;50.258;19.062;2023-07-22T01:42:01;9.38;;;8.07;;
53339;SDS011;46212;50.258;19.062;2023-07-22T01:44:27;11.45;;;8.52;;
53339;SDS011;46212;50.258;19.062;2023-07-22T01:46:52;15.07;;;9.20;;
53339;SDS011;46212;50.258;19.062;2023-07-22T01:49:18;11.10;;;7.70;;
53339;SDS011;46212;50.258;19.062;2023-07-22T01:51:43;13.17;;;7.90;;
53339;SDS011;46212;50.258;19.062;2023-07-22T01:54:09;9.77;;;7.27;;
53339;SDS011;46212;50.258;19.062;2023-07-22T01:56:35;10.60;;;6.38;;
53339;SDS011;46212;50.258;19.062;2023-07-22T01:59:01;11.18;;;6.53;;
53339;SDS011;46212;50.258;19.062;2023-07-22T02:01:26;8.60;;;6.43;;
53339;SDS011;46212;50.258;19.062;2023-07-22T02:03:53;8.65;;;6.65;;
53339;SDS011;46212;50.258;19.062;2023-07-22T02:06:18;10.33;;;7.17;;
53339;SDS011;46212;50.258;19.062;2023-07-22T02:08:44;12.90;;;6.87;;
53339;SDS011;46212;50.258;19.062;2023-07-22T02:11:10;10.70;;;6.75;;
53339;SDS011;46212;50.258;19.062;2023-07-22T02:13:36;10.77;;;6.63;;
53339;SDS011;46212;50.258;19.062;2023-07-22T02:16:02;9.63;;;7.20;;
53339;SDS011;46212;50.258;19.062;2023-07-22T02:18:28;11.13;;;7.18;;
53339;SDS011;46212;50.258;19.062;2023-07-22T02:20:54;12.88;;;7.38;;
53339;SDS011;46212;50.258;19.062;2023-07-22T02:25:50;10.80;;;6.93;;
53339;SDS011;46212;50.258;19.062;2023-07-22T02:28:16;11.07;;;7.55;;
53339;SDS011;46212;50.258;19.062;2023-07-22T02:30:45;10.55;;;7.43;;
53339;SDS011;46212;50.258;19.062;2023-07-22T02:33:11;11.33;;;7.50;;
53339;SDS011;46212;50.258;19.062;2023-07-22T02:35:36;12.43;;;7.87;;
53339;SDS011;46212;50.258;19.062;2023-07-22T02:38:01;11.93;;;7.90;;
53339;SDS011;46212;50.258;19.062;2023-07-22T02:40:27;10.80;;;7.40;;
53339;SDS011;46212;50.258;19.062;2023-07-22T02:42:52;12.57;;;7.40;;
53339;SDS011;46212;50.258;19.062;2023-07-22T02:45:18;11.03;;;7.10;;
53339;SDS011;46212;50.258;19.062;2023-07-22T02:47:43;11.87;;;7.80;;
53339;SDS011;46212;50.258;19.062;2023-07-22T02:50:09;13.87;;;7.77;;
53339;SDS011;46212;50.258;19.062;2023-07-22T02:52:34;12.00;;;7.83;;
53339;SDS011;46212;50.258;19.062;2023-07-22T02:57:31;12.57;;;8.40;;
53339;SDS011;46212;50.258;19.062;2023-07-22T02:59:56;11.37;;;8.43;;
53339;SDS011;46212;50.258;19.062;2023-07-22T03:02:21;14.00;;;9.03;;
53339;SDS011;46212;50.258;19.062;2023-07-22T03:04:47;13.03;;;8.20;;
53339;SDS011;46212;50.258;19.062;2023-07-22T03:07:12;16.03;;;8.80;;
53339;SDS011;46212;50.258;19.062;2023-07-22T03:09:38;14.60;;;10.03;;
53339;SDS011;46212;50.258;19.062;2023-07-22T03:12:03;19.87;;;10.47;;
53339;SDS011;46212;50.258;19.062;2023-07-22T03:14:29;17.97;;;11.07;;
53339;SDS011;46212;50.258;19.062;2023-07-22T03:16:54;19.73;;;12.57;;
53339;SDS011;46212;50.258;19.062;2023-07-22T03:19:20;19.97;;;13.20;;
53339;SDS011;46212;50.258;19.062;2023-07-22T03:21:46;20.00;;;13.82;;
53339;SDS011;46212;50.258;19.062;2023-07-22T03:24:11;21.33;;;12.53;;
53339;SDS011;46212;50.258;19.062;2023-07-22T03:26:36;26.37;;;13.37;;
53339;SDS011;46212;50.258;19.062;2023-07-22T03:29:02;24.30;;;13.80;;
53339;SDS011;46212;50.258;19.062;2023-07-22T03:31:29;23.08;;;15.23;;
53339;SDS011;46212;50.258;19.062;2023-07-22T03:33:54;25.03;;;15.20;;
53339;SDS011;46212;50.258;19.062;2023-07-22T03:36:20;23.47;;;14.77;;
53339;SDS011;46212;50.258;19.062;2023-07-22T03:38:45;22.27;;;14.70;;
53339;SDS011;46212;50.258;19.062;2023-07-22T03:41:11;25.63;;;16.10;;
53339;SDS011;46212;50.258;19.062;2023-07-22T03:43:36;23.17;;;15.83;;
53339;SDS011;46212;50.258;19.062;2023-07-22T03:46:01;22.13;;;14.40;;
53339;SDS011;46212;50.258;19.062;2023-07-22T03:48:27;25.40;;;15.10;;
53339;SDS011;46212;50.258;19.062;2023-07-22T03:50:52;45.53;;;31.07;;
53339;SDS011;46212;50.258;19.062;2023-07-22T03:53:17;59.60;;;34.67;;
53339;SDS011;46212;50.258;19.062;2023-07-22T03:55:43;24.80;;;15.03;;
53339;SDS011;46212;50.258;19.062;2023-07-22T03:58:08;27.67;;;16.00;;
53339;SDS011;46212;50.258;19.062;2023-07-22T04:00:34;26.13;;;16.80;;
53339;SDS011;46212;50.258;19.062;2023-07-22T04:02:59;26.50;;;16.70;;
53339;SDS011;46212;50.258;19.062;2023-07-22T04:05:24;32.17;;;18.43;;
53339;SDS011;46212;50.258;19.062;2023-07-22T04:07:50;46.77;;;18.13;;
53339;SDS011;46212;50.258;19.062;2023-07-22T04:10:15;30.27;;;15.93;;
53339;SDS011;46212;50.258;19.062;2023-07-22T04:12:40;25.40;;;17.37;;
53339;SDS011;46212;50.258;19.062;2023-07-22T04:15:06;23.47;;;16.37;;
53339;SDS011;46212;50.258;19.062;2023-07-22T04:17:32;22.33;;;15.70;;
53339;SDS011;46212;50.258;19.062;2023-07-22T04:19:57;21.00;;;15.03;;
53339;SDS011;46212;50.258;19.062;2023-07-22T04:22:22;22.17;;;15.23;;
53339;SDS011;46212;50.258;19.062;2023-07-22T04:24:48;26.33;;;16.53;;
53339;SDS011;46212;50.258;19.062;2023-07-22T04:27:14;26.07;;;16.70;;
53339;SDS011;46212;50.258;19.062;2023-07-22T04:29:40;20.23;;;14.57;;
53339;SDS011;46212;50.258;19.062;2023-07-22T04:32:06;23.17;;;15.90;;
53339;SDS011;46212;50.258;19.062;2023-07-22T04:34:33;25.52;;;15.30;;
53339;SDS011;46212;50.258;19.062;2023-07-22T04:36:59;21.95;;;15.43;;
53339;SDS011;46212;50.258;19.062;2023-07-22T04:39:25;57.33;;;36.58;;
53339;SDS011;46212;50.258;19.062;2023-07-22T04:41:50;137.30;;;81.07;;
53339;SDS011;46212;50.258;19.062;2023-07-22T04:44:17;19.77;;;13.52;;
53339;SDS011;46212;50.258;19.062;2023-07-22T04:46:43;18.80;;;13.70;;
53339;SDS011;46212;50.258;19.062;2023-07-22T04:49:09;19.67;;;13.90;;
53339;SDS011;46212;50.258;19.062;2023-07-22T04:51:34;18.27;;;13.80;;
53339;SDS011;46212;50.258;19.062;2023-07-22T04:54:00;17.83;;;12.80;;
53339;SDS011;46212;50.258;19.062;2023-07-22T04:56:25;20.97;;;14.47;;
53339;SDS011;46212;50.258;19.062;2023-07-22T04:58:51;22.87;;;14.60;;
53339;SDS011;46212;50.258;19.062;2023-07-22T05:01:16;21.57;;;13.50;;
53339;SDS011;46212;50.258;19.062;2023-07-22T05:03:41;20.37;;;12.80;;
53339;SDS011;46212;50.258;19.062;2023-07-22T05:06:08;17.48;;;11.68;;
53339;SDS011;46212;50.258;19.062;2023-07-22T05:08:33;18.87;;;12.43;;
53339;SDS011;46212;50.258;19.062;2023-07-22T05:10:59;16.05;;;12.05;;
53339;SDS011;46212;50.258;19.062;2023-07-22T05:13:25;12.47;;;10.03;;
53339;SDS011;46212;50.258;19.062;2023-07-22T05:15:50;14.87;;;10.47;;
53339;SDS011;46212;50.258;19.062;2023-07-22T05:18:15;13.87;;;9.60;;
53339;SDS011;46212;50.258;19.062;2023-07-22T05:20:41;14.97;;;9.67;;
53339;SDS011;46212;50.258;19.062;2023-07-22T05:23:07;13.97;;;9.27;;
53339;SDS011;46212;50.258;19.062;2023-07-22T05:25:32;14.03;;;9.30;;
53339;SDS011;46212;50.258;19.062;2023-07-22T05:27:57;11.93;;;8.87;;
53339;SDS011;46212;50.258;19.062;2023-07-22T05:30:23;14.20;;;10.17;;
53339;SDS011;46212;50.258;19.062;2023-07-22T05:32:51;14.30;;;8.60;;
53339;SDS011;46212;50.258;19.062;2023-07-22T05:35:18;11.88;;;8.70;;
53339;SDS011;46212;50.258;19.062;2023-07-22T05:37:43;11.93;;;8.30;;
53339;SDS011;46212;50.258;19.062;2023-07-22T05:40:08;13.30;;;8.53;;
53339;SDS011;46212;50.258;19.062;2023-07-22T05:42:34;12.70;;;7.75;;
53339;SDS011;46212;50.258;19.062;2023-07-22T05:45:00;9.53;;;7.70;;
53339;SDS011;46212;50.258;19.062;2023-07-22T05:47:27;11.52;;;7.18;;
53339;SDS011;46212;50.258;19.062;2023-07-22T05:49:52;10.53;;;7.43;;
53339;SDS011;46212;50.258;19.062;2023-07-22T05:52:18;14.90;;;7.97;;
53339;SDS011;46212;50.258;19.062;2023-07-22T05:54:43;10.20;;;6.83;;
53339;SDS011;46212;50.258;19.062;2023-07-22T05:57:09;15.07;;;7.63;;
53339;SDS011;46212;50.258;19.062;2023-07-22T05:59:34;10.33;;;7.43;;
53339;SDS011;46212;50.258;19.062;2023-07-22T06:02:01;10.88;;;7.30;;
53339;SDS011;46212;50.258;19.062;2023-07-22T06:04:28;9.63;;;6.72;;
53339;SDS011;46212;50.258;19.062;2023-07-22T06:06:53;10.47;;;7.37;;
53339;SDS011;46212;50.258;19.062;2023-07-22T06:09:18;11.87;;;7.90;;
53339;SDS011;46212;50.258;19.062;2023-07-22T06:11:45;9.43;;;6.22;;
53339;SDS011;46212;50.258;19.062;2023-07-22T06:14:10;10.47;;;6.63;;
53339;SDS011;46212;50.258;19.062;2023-07-22T06:16:36;8.50;;;5.67;;
53339;SDS011;46212;50.258;19.062;2023-07-22T06:19:01;9.40;;;6.00;;
53339;SDS011;46212;50.258;19.062;2023-07-22T06:21:26;8.80;;;5.07;;
53339;SDS011;46212;50.258;19.062;2023-07-22T06:23:52;8.27;;;5.37;;
53339;SDS011;46212;50.258;19.062;2023-07-22T06:26:17;8.83;;;5.37;;
53339;SDS011;46212;50.258;19.062;2023-07-22T06:28:42;10.83;;;6.27;;
53339;SDS011;46212;50.258;19.062;2023-07-22T06:31:08;9.00;;;5.20;;
53339;SDS011;46212;50.258;19.062;2023-07-22T06:33:33;9.40;;;5.33;;
53339;SDS011;46212;50.258;19.062;2023-07-22T06:35:58;9.73;;;5.53;;
53339;SDS011;46212;50.258;19.062;2023-07-22T06:38:24;9.50;;;5.07;;
53339;SDS011;46212;50.258;19.062;2023-07-22T06:40:51;7.40;;;5.30;;
53339;SDS011;46212;50.258;19.062;2023-07-22T06:43:17;7.38;;;4.97;;
53339;SDS011;46212;50.258;19.062;2023-07-22T06:45:43;10.03;;;4.70;;
53339;SDS011;46212;50.258;19.062;2023-07-22T06:48:08;6.73;;;4.67;;
53339;SDS011;46212;50.258;19.062;2023-07-22T06:50:33;6.73;;;4.60;;
53339;SDS011;46212;50.258;19.062;2023-07-22T06:52:59;8.37;;;5.13;;
53339;SDS011;46212;50.258;19.062;2023-07-22T06:55:24;7.23;;;4.90;;
53339;SDS011;46212;50.258;19.062;2023-07-22T06:57:49;6.07;;;4.43;;
53339;SDS011;46212;50.258;19.062;2023-07-22T07:00:15;6.17;;;4.20;;
53339;SDS011;46212;50.258;19.062;2023-07-22T07:02:41;9.67;;;5.00;;
53339;SDS011;46212;50.258;19.062;2023-07-22T07:05:06;6.32;;;4.30;;
53339;SDS011;46212;50.258;19.062;2023-07-22T07:07:33;7.75;;;4.82;;
53339;SDS011;46212;50.258;19.062;2023-07-22T07:09:58;6.60;;;4.80;;
53339;SDS011;46212;50.258;19.062;2023-07-22T07:12:24;10.43;;;5.70;;
53339;SDS011;46212;50.258;19.062;2023-07-22T07:14:50;10.20;;;4.67;;
53339;SDS011;46212;50.258;19.062;2023-07-22T07:17:15;6.68;;;4.70;;
53339;SDS011;46212;50.258;19.062;2023-07-22T07:19:41;7.23;;;4.17;;
53339;SDS011;46212;50.258;19.062;2023-07-22T07:22:06;5.63;;;3.30;;
53339;SDS011;46212;50.258;19.062;2023-07-22T07:24:32;6.33;;;4.27;;
53339;SDS011;46212;50.258;19.062;2023-07-22T07:26:57;9.17;;;3.77;;
53339;SDS011;46212;50.258;19.062;2023-07-22T07:29:22;5.20;;;3.47;;
53339;SDS011;46212;50.258;19.062;2023-07-22T07:31:48;6.07;;;4.23;;
53339;SDS011;46212;50.258;19.062;2023-07-22T07:34:13;7.50;;;3.80;;
53339;SDS011;46212;50.258;19.062;2023-07-22T07:36:38;4.13;;;3.23;;
53339;SDS011;46212;50.258;19.062;2023-07-22T07:39:04;5.93;;;3.53;;
53339;SDS011;46212;50.258;19.062;2023-07-22T07:41:29;5.57;;;2.40;;
53339;SDS011;46212;50.258;19.062;2023-07-22T07:43:55;9.70;;;3.65;;
53339;SDS011;46212;50.258;19.062;2023-07-22T07:46:22;4.20;;;2.63;;
53339;SDS011;46212;50.258;19.062;2023-07-22T07:48:49;5.18;;;2.65;;
53339;SDS011;46212;50.258;19.062;2023-07-22T07:51:18;7.28;;;4.03;;
53339;SDS011;46212;50.258;19.062;2023-07-22T07:53:45;4.40;;;2.63;;
53339;SDS011;46212;50.258;19.062;2023-07-22T07:56:15;4.95;;;2.83;;
53339;SDS011;46212;50.258;19.062;2023-07-22T07:58:41;4.28;;;2.75;;
53339;SDS011;46212;50.258;19.062;2023-07-22T08:01:07;4.70;;;2.20;;
53339;SDS011;46212;50.258;19.062;2023-07-22T08:03:33;3.73;;;2.40;;
53339;SDS011;46212;50.258;19.062;2023-07-22T08:06:00;4.40;;;2.50;;
53339;SDS011;46212;50.258;19.062;2023-07-22T08:08:26;4.50;;;2.40;;
53339;SDS011;46212;50.258;19.062;2023-07-22T08:11:01;6.20;;;2.40;;
53339;SDS011;46212;50.258;19.062;2023-07-22T08:13:31;6.07;;;2.25;;
53339;SDS011;46212;50.258;19.062;2023-07-22T08:15:59;3.47;;;2.08;;
53339;SDS011;46212;50.258;19.062;2023-07-22T08:18:24;3.83;;;2.20;;
53339;SDS011;46212;50.258;19.062;2023-07-22T08:20:51;3.70;;;2.43;;
53339;SDS011;46212;50.258;19.062;2023-07-22T08:23:17;2.97;;;1.92;;
53339;SDS011;46212;50.258;19.062;2023-07-22T08:25:42;3.00;;;2.00;;
53339;SDS011;46212;50.258;19.062;2023-07-22T08:28:08;3.67;;;2.13;;
53339;SDS011;46212;50.258;19.062;2023-07-22T08:30:34;3.53;;;2.05;;
53339;SDS011;46212;50.258;19.062;2023-07-22T08:33:00;4.60;;;3.13;;
53339;SDS011;46212;50.258;19.062;2023-07-22T08:35:25;4.33;;;2.13;;
53339;SDS011;46212;50.258;19.062;2023-07-22T08:37:51;3.50;;;2.15;;
53339;SDS011;46212;50.258;19.062;2023-07-22T08:40:17;5.65;;;1.80;;
53339;SDS011;46212;50.258;19.062;2023-07-22T08:42:43;3.85;;;1.95;;
53339;SDS011;46212;50.258;19.062;2023-07-22T08:45:10;6.88;;;2.10;;
53339;SDS011;46212;50.258;19.062;2023-07-22T08:47:38;2.60;;;1.60;;
53339;SDS011;46212;50.258;19.062;2023-07-22T08:50:09;5.40;;;1.88;;
53339;SDS011;46212;50.258;19.062;2023-07-22T08:52:36;3.80;;;2.13;;
53339;SDS011;46212;50.258;19.062;2023-07-22T08:55:03;2.58;;;1.55;;
53339;SDS011;46212;50.258;19.062;2023-07-22T08:57:29;4.22;;;2.63;;
53339;SDS011;46212;50.258;19.062;2023-07-22T08:59:56;4.97;;;2.35;;
53339;SDS011;46212;50.258;19.062;2023-07-22T09:02:22;3.65;;;2.05;;
53339;SDS011;46212;50.258;19.062;2023-07-22T09:04:50;3.53;;;2.28;;
53339;SDS011;46212;50.258;19.062;2023-07-22T09:07:15;3.73;;;2.17;;
53339;SDS011;46212;50.258;19.062;2023-07-22T09:09:41;3.35;;;2.03;;
53339;SDS011;46212;50.258;19.062;2023-07-22T09:12:09;4.15;;;2.22;;
53339;SDS011;46212;50.258;19.062;2023-07-22T09:14:35;4.00;;;1.95;;
53339;SDS011;46212;50.258;19.062;2023-07-22T09:17:04;5.55;;;3.40;;
53339;SDS011;46212;50.258;19.062;2023-07-22T09:19:30;9.38;;;3.28;;
53339;SDS011;46212;50.258;19.062;2023-07-22T09:21:56;3.80;;;2.27;;
53339;SDS011;46212;50.258;19.062;2023-07-22T09:24:24;5.28;;;2.17;;
53339;SDS011;46212;50.258;19.062;2023-07-22T09:26:50;4.88;;;2.53;;
53339;SDS011;46212;50.258;19.062;2023-07-22T09:29:16;3.50;;;1.97;;
53339;SDS011;46212;50.258;19.062;2023-07-22T09:31:51;3.55;;;2.33;;
53339;SDS011;46212;50.258;19.062;2023-07-22T09:34:18;3.58;;;2.20;;
53339;SDS011;46212;50.258;19.062;2023-07-22T09:36:49;3.90;;;2.17;;
53339;SDS011;46212;50.258;19.062;2023-07-22T09:39:15;5.90;;;2.50;;
53339;SDS011;46212;50.258;19.062;2023-07-22T09:41:41;4.57;;;2.20;;
53339;SDS011;46212;50.258;19.062;2023-07-22T09:46:34;4.57;;;2.00;;
53339;SDS011;46212;50.258;19.062;2023-07-22T09:49:02;4.73;;;2.77;;
53339;SDS011;46212;50.258;19.062;2023-07-22T09:51:33;3.85;;;2.25;;
53339;SDS011;46212;50.258;19.062;2023-07-22T09:54:02;4.07;;;2.40;;
53339;SDS011;46212;50.258;19.062;2023-07-22T09:56:29;4.90;;;2.20;;
53339;SDS011;46212;50.258;19.062;2023-07-22T09:58:55;5.03;;;1.95;;
53339;SDS011;46212;50.258;19.062;2023-07-22T10:01:25;3.78;;;1.98;;
53339;SDS011;46212;50.258;19.062;2023-07-22T10:03:55;3.85;;;2.13;;
53339;SDS011;46212;50.258;19.062;2023-07-22T10:06:24;4.38;;;2.22;;
53339;SDS011;46212;50.258;19.062;2023-07-22T10:08:52;3.72;;;2.40;;
53339;SDS011;46212;50.258;19.062;2023-07-22T10:11:20;4.32;;;2.33;;
53339;SDS011;46212;50.258;19.062;2023-07-22T10:13:47;4.28;;;2.42;;
53339;SDS011;46212;50.258;19.062;2023-07-22T10:16:13;6.32;;;2.20;;
53339;SDS011;46212;50.258;19.062;2023-07-22T10:18:40;4.10;;;2.50;;
53339;SDS011;46212;50.258;19.062;2023-07-22T10:21:08;5.55;;;2.40;;
53339;SDS011;46212;50.258;19.062;2023-07-22T10:23:33;4.63;;;2.42;;
53339;SDS011;46212;50.258;19.062;2023-07-22T10:26:01;4.28;;;2.10;;
53339;SDS011;46212;50.258;19.062;2023-07-22T10:30:54;6.53;;;2.30;;
53339;SDS011;46212;50.258;19.062;2023-07-22T10:33:20;4.03;;;1.92;;
53339;SDS011;46212;50.258;19.062;2023-07-22T10:36:01;5.00;;;1.87;;
53339;SDS011;46212;50.258;19.062;2023-07-22T10:38:28;3.20;;;2.40;;
53339;SDS011;46212;50.258;19.062;2023-07-22T10:40:54;4.37;;;2.17;;
53339;SDS011;46212;50.258;19.062;2023-07-22T10:43:27;2.75;;;2.00;;
53339;SDS011;46212;50.258;19.062;2023-07-22T10:45:56;4.68;;;1.85;;
53339;SDS011;46212;50.258;19.062;2023-07-22T10:48:27;3.25;;;2.13;;
53339;SDS011;46212;50.258;19.062;2023-07-22T10:51:05;2.92;;;1.85;;
53339;SDS011;46212;50.258;19.062;2023-07-22T10:53:32;5.50;;;2.28;;
53339;SDS011;46212;50.258;19.062;2023-07-22T11:12:08;2.85;;;2.05;;
53339;SDS011;46212;50.258;19.062;2023-07-22T11:14:39;5.20;;;2.00;;
53339;SDS011;46212;50.258;19.062;2023-07-22T11:17:10;4.32;;;1.77;;
53339;SDS011;46212;50.258;19.062;2023-07-22T11:19:36;3.63;;;2.30;;
53339;SDS011;46212;50.258;19.062;2023-07-22T11:22:02;2.95;;;1.73;;
53339;SDS011;46212;50.258;19.062;2023-07-22T11:24:27;5.07;;;2.10;;
53339;SDS011;46212;50.258;19.062;2023-07-22T11:26:53;5.43;;;2.20;;
53339;SDS011;46212;50.258;19.062;2023-07-22T11:31:48;3.00;;;1.88;;
53339;SDS011;46212;50.258;19.062;2023-07-22T11:34:18;2.60;;;1.80;;
53339;SDS011;46212;50.258;19.062;2023-07-22T11:36:46;4.00;;;2.13;;
53339;SDS011;46212;50.258;19.062;2023-07-22T11:39:13;3.40;;;2.15;;
53339;SDS011;46212;50.258;19.062;2023-07-22T11:41:40;3.60;;;2.03;;
53339;SDS011;46212;50.258;19.062;2023-07-22T11:44:09;3.10;;;2.08;;
53339;SDS011;46212;50.258;19.062;2023-07-22T11:46:54;4.35;;;1.90;;
53339;SDS011;46212;50.258;19.062;2023-07-22T11:49:28;4.28;;;1.90;;
53339;SDS011;46212;50.258;19.062;2023-07-22T11:52:04;2.83;;;1.95;;
53339;SDS011;46212;50.258;19.062;2023-07-22T11:54:40;4.68;;;2.00;;
53339;SDS011;46212;50.258;19.062;2023-07-22T11:57:10;4.53;;;2.20;;
53339;SDS011;46212;50.258;19.062;2023-07-22T11:59:43;3.88;;;1.80;;
53339;SDS011;46212;50.258;19.062;2023-07-22T12:02:15;4.80;;;2.40;;
53339;SDS011;46212;50.258;19.062;2023-07-22T12:04:43;3.42;;;1.70;;
53339;SDS011;46212;50.258;19.062;2023-07-22T12:07:21;2.75;;;1.70;;
53339;SDS011;46212;50.258;19.062;2023-07-22T12:09:51;3.08;;;1.85;;
53339;SDS011;46212;50.258;19.062;2023-07-22T12:12:17;3.28;;;2.08;;
53339;SDS011;46212;50.258;19.062;2023-07-22T12:14:43;3.30;;;2.03;;
53339;SDS011;46212;50.258;19.062;2023-07-22T12:17:08;2.80;;;1.83;;
53339;SDS011;46212;50.258;19.062;2023-07-22T12:19:34;3.65;;;2.00;;
53339;SDS011;46212;50.258;19.062;2023-07-22T12:22:00;4.18;;;1.90;;
53339;SDS011;46212;50.258;19.062;2023-07-22T12:24:27;4.38;;;2.50;;
53339;SDS011;46212;50.258;19.062;2023-07-22T12:26:53;3.42;;;2.38;;
53339;SDS011;46212;50.258;19.062;2023-07-22T12:29:19;3.42;;;2.05;;
53339;SDS011;46212;50.258;19.062;2023-07-22T12:31:44;3.72;;;2.45;;
53339;SDS011;46212;50.258;19.062;2023-07-22T12:34:10;3.78;;;2.40;;
53339;SDS011;46212;50.258;19.062;2023-07-22T12:36:35;4.27;;;1.97;;
53339;SDS011;46212;50.258;19.062;2023-07-22T12:39:01;4.00;;;2.57;;
53339;SDS011;46212;50.258;19.062;2023-07-22T12:41:26;4.90;;;2.40;;
53339;SDS011;46212;50.258;19.062;2023-07-22T12:43:51;4.10;;;2.10;;
53339;SDS011;46212;50.258;19.062;2023-07-22T12:46:17;2.85;;;1.75;;
53339;SDS011;46212;50.258;19.062;2023-07-22T12:48:42;4.63;;;2.67;;
53339;SDS011;46212;50.258;19.062;2023-07-22T12:51:08;5.07;;;2.35;;
53339;SDS011;46212;50.258;19.062;2023-07-22T12:53:34;5.28;;;2.40;;
53339;SDS011;46212;50.258;19.062;2023-07-22T12:56:00;6.07;;;2.08;;
53339;SDS011;46212;50.258;19.062;2023-07-22T12:58:28;3.10;;;2.08;;
53339;SDS011;46212;50.258;19.062;2023-07-22T13:00:53;3.40;;;1.90;;
53339;SDS011;46212;50.258;19.062;2023-07-22T13:03:19;3.63;;;2.27;;
53339;SDS011;46212;50.258;19.062;2023-07-22T13:05:44;9.90;;;2.77;;
53339;SDS011;46212;50.258;19.062;2023-07-22T13:08:10;4.55;;;2.15;;
53339;SDS011;46212;50.258;19.062;2023-07-22T13:10:35;4.88;;;2.83;;
53339;SDS011;46212;50.258;19.062;2023-07-22T13:13:03;4.60;;;2.55;;
53339;SDS011;46212;50.258;19.062;2023-07-22T13:15:29;3.97;;;2.60;;
53339;SDS011;46212;50.258;19.062;2023-07-22T13:17:54;3.13;;;2.40;;
53339;SDS011;46212;50.258;19.062;2023-07-22T13:20:20;4.10;;;2.40;;
53339;SDS011;46212;50.258;19.062;2023-07-22T13:22:45;3.70;;;2.50;;
53339;SDS011;46212;50.258;19.062;2023-07-22T13:25:10;3.23;;;2.27;;
53339;SDS011;46212;50.258;19.062;2023-07-22T13:27:36;5.33;;;2.40;;
53339;SDS011;46212;50.258;19.062;2023-07-22T13:30:05;3.53;;;2.30;;
53339;SDS011;46212;50.258;19.062;2023-07-22T13:32:31;5.60;;;3.10;;
53339;SDS011;46212;50.258;19.062;2023-07-22T13:34:57;4.53;;;2.53;;
53339;SDS011;46212;50.258;19.062;2023-07-22T13:39:48;9.30;;;3.57;;
53339;SDS011;46212;50.258;19.062;2023-07-22T13:42:14;6.37;;;2.83;;
53339;SDS011;46212;50.258;19.062;2023-07-22T13:44:39;3.47;;;2.47;;
53339;SDS011;46212;50.258;19.062;2023-07-22T13:47:04;4.63;;;2.43;;
53339;SDS011;46212;50.258;19.062;2023-07-22T13:49:30;3.73;;;2.40;;
53339;SDS011;46212;50.258;19.062;2023-07-22T13:51:55;5.30;;;2.60;;
53339;SDS011;46212;50.258;19.062;2023-07-22T13:54:20;3.80;;;2.60;;
53339;SDS011;46212;50.258;19.062;2023-07-22T13:56:46;5.50;;;2.77;;
53339;SDS011;46212;50.258;19.062;2023-07-22T13:59:12;3.53;;;2.33;;
53339;SDS011;46212;50.258;19.062;2023-07-22T14:01:38;4.05;;;2.33;;
53339;SDS011;46212;50.258;19.062;2023-07-22T14:04:04;6.10;;;2.58;;
53339;SDS011;46212;50.258;19.062;2023-07-22T14:06:29;3.67;;;2.20;;
53339;SDS011;46212;50.258;19.062;2023-07-22T14:08:55;6.03;;;2.35;;
53339;SDS011;46212;50.258;19.062;2023-07-22T14:11:20;5.88;;;2.10;;
53339;SDS011;46212;50.258;19.062;2023-07-22T14:13:45;3.45;;;1.92;;
53339;SDS011;46212;50.258;19.062;2023-07-22T14:16:11;4.95;;;3.00;;
53339;SDS011;46212;50.258;19.062;2023-07-22T14:18:36;5.32;;;2.40;;
53339;SDS011;46212;50.258;19.062;2023-07-22T14:21:02;3.65;;;2.40;;
53339;SDS011;46212;50.258;19.062;2023-07-22T14:23:27;2.85;;;1.98;;
53339;SDS011;46212;50.258;19.062;2023-07-22T14:25:53;4.20;;;2.30;;
53339;SDS011;46212;50.258;19.062;2023-07-22T14:28:18;4.63;;;2.00;;
53339;SDS011;46212;50.258;19.062;2023-07-22T14:30:44;4.88;;;2.30;;
53339;SDS011;46212;50.258;19.062;2023-07-22T14:33:09;3.47;;;2.20;;
53339;SDS011;46212;50.258;19.062;2023-07-22T14:35:35;4.40;;;2.30;;
53339;SDS011;46212;50.258;19.062;2023-07-22T14:38:01;5.50;;;2.10;;
53339;SDS011;46212;50.258;19.062;2023-07-22T14:40:26;6.68;;;2.33;;
53339;SDS011;46212;50.258;19.062;2023-07-22T14:42:52;3.58;;;2.10;;
53339;SDS011;46212;50.258;19.062;2023-07-22T14:45:18;2.63;;;1.83;;
53339;SDS011;46212;50.258;19.062;2023-07-22T14:47:43;6.13;;;2.40;;
53339;SDS011;46212;50.258;19.062;2023-07-22T14:50:09;4.03;;;1.92;;
53339;SDS011;46212;50.258;19.062;2023-07-22T14:52:35;5.22;;;2.40;;